Terminal Aerodrome Forecast
Issued by NWS Atlanta, GA

Home | Current Version | Previous Version | Text Only | Print | Product List | Glossary On
Versions: 1 2 3 4 5 6 7 8 9 10 11 12 13 14 15 16 17 18 19 20 21 22 23 24 25 26 27 28 29 30 31 32 33
000
FTUS42 KFFC 251741
TAFAHN
TAF
KAHN 251741Z 2518/2618 26005KT P6SM SCT050 SCT120
      TEMPO 2519/2522 VRB12KT 4SM -TSRA BR BKN035CB
     FM252300 27006KT P6SM SCT070
     FM260200 24003KT P6SM SCT100
     FM261600 24006KT P6SM SCT035=

USA.gov is the U.S. government's official web portal to all federal, state and local government web resources and services.